sensor_id;sensor_type;location;lat;lon;timestamp;pressure;altitude;pressure_sealevel;temperature;humidity
18145;BME280;14857;41.200;-8.326;2022-08-03T00:00:47;99699.03;;;22.48;100.00
18145;BME280;14857;41.200;-8.326;2022-08-03T00:03:18;99699.03;;;22.48;100.00
18145;BME280;14857;41.200;-8.326;2022-08-03T00:05:47;99696.72;;;22.39;100.00
18145;BME280;14857;41.200;-8.326;2022-08-03T00:08:32;99686.25;;;22.37;100.00
18145;BME280;14857;41.200;-8.326;2022-08-03T00:11:06;99694.34;;;22.23;100.00
18145;BME280;14857;41.200;-8.326;2022-08-03T00:13:35;99689.81;;;22.23;100.00
18145;BME280;14857;41.200;-8.326;2022-08-03T00:16:04;99691.47;;;22.24;100.00
18145;BME280;14857;41.200;-8.326;2022-08-03T00:18:32;99686.56;;;22.28;100.00
18145;BME280;14857;41.200;-8.326;2022-08-03T00:21:02;99684.09;;;22.26;100.00
18145;BME280;14857;41.200;-8.326;2022-08-03T00:23:32;99689.41;;;22.26;100.00
18145;BME280;14857;41.200;-8.326;2022-08-03T00:26:19;99677.63;;;22.14;100.00
18145;BME280;14857;41.200;-8.326;2022-08-03T00:28:48;99682.72;;;22.09;100.00
18145;BME280;14857;41.200;-8.326;2022-08-03T00:31:16;99670.03;;;22.11;100.00
18145;BME280;14857;41.200;-8.326;2022-08-03T00:34:05;99675.25;;;22.19;100.00
18145;BME280;14857;41.200;-8.326;2022-08-03T00:36:34;99666.66;;;22.24;100.00
18145;BME280;14857;41.200;-8.326;2022-08-03T00:39:04;99664.81;;;22.24;100.00
18145;BME280;14857;41.200;-8.326;2022-08-03T00:41:33;99666.19;;;21.78;100.00
18145;BME280;14857;41.200;-8.326;2022-08-03T00:44:02;99675.69;;;21.44;100.00
18145;BME280;14857;41.200;-8.326;2022-08-03T00:46:31;99679.47;;;21.35;100.00
18145;BME280;14857;41.200;-8.326;2022-08-03T00:48:59;99683.66;;;21.44;100.00
18145;BME280;14857;41.200;-8.326;2022-08-03T00:51:28;99678.88;;;21.55;100.00
18145;BME280;14857;41.200;-8.326;2022-08-03T00:53:57;99667.56;;;21.31;100.00
18145;BME280;14857;41.200;-8.326;2022-08-03T00:56:27;99671.50;;;21.06;100.00
18145;BME280;14857;41.200;-8.326;2022-08-03T00:58:55;99658.03;;;20.93;100.00
18145;BME280;14857;41.200;-8.326;2022-08-03T01:01:25;99670.88;;;20.89;100.00
18145;BME280;14857;41.200;-8.326;2022-08-03T01:03:58;99678.09;;;20.81;100.00
18145;BME280;14857;41.200;-8.326;2022-08-03T01:06:35;99677.00;;;20.75;100.00
18145;BME280;14857;41.200;-8.326;2022-08-03T01:09:12;99676.06;;;20.68;100.00
18145;BME280;14857;41.200;-8.326;2022-08-03T01:11:49;99672.16;;;20.79;100.00
18145;BME280;14857;41.200;-8.326;2022-08-03T01:14:45;99666.47;;;20.82;100.00
18145;BME280;14857;41.200;-8.326;2022-08-03T01:17:24;99669.66;;;20.63;100.00
18145;BME280;14857;41.200;-8.326;2022-08-03T01:20:01;99669.03;;;20.61;100.00
18145;BME280;14857;41.200;-8.326;2022-08-03T01:22:39;99666.81;;;20.50;100.00
18145;BME280;14857;41.200;-8.326;2022-08-03T01:25:23;99659.94;;;20.40;100.00
18145;BME280;14857;41.200;-8.326;2022-08-03T01:28:19;99669.00;;;20.46;100.00
18145;BME280;14857;41.200;-8.326;2022-08-03T01:30:52;99681.81;;;20.42;100.00
18145;BME280;14857;41.200;-8.326;2022-08-03T01:33:28;99670.19;;;20.43;100.00
18145;BME280;14857;41.200;-8.326;2022-08-03T01:36:03;99668.84;;;20.48;100.00
18145;BME280;14857;41.200;-8.326;2022-08-03T01:38:35;99679.38;;;20.56;100.00
18145;BME280;14857;41.200;-8.326;2022-08-03T01:41:11;99670.47;;;20.49;100.00
18145;BME280;14857;41.200;-8.326;2022-08-03T01:43:43;99671.75;;;20.53;100.00
18145;BME280;14857;41.200;-8.326;2022-08-03T01:46:37;99672.59;;;20.53;100.00
18145;BME280;14857;41.200;-8.326;2022-08-03T01:49:14;99675.81;;;20.78;100.00
18145;BME280;14857;41.200;-8.326;2022-08-03T01:51:46;99679.22;;;20.86;100.00
18145;BME280;14857;41.200;-8.326;2022-08-03T01:54:31;99674.91;;;21.00;100.00
18145;BME280;14857;41.200;-8.326;2022-08-03T01:57:02;99668.50;;;21.09;100.00
18145;BME280;14857;41.200;-8.326;2022-08-03T01:59:33;99682.34;;;21.19;100.00
18145;BME280;14857;41.200;-8.326;2022-08-03T02:02:04;99680.41;;;21.28;100.00
18145;BME280;14857;41.200;-8.326;2022-08-03T02:04:55;99679.19;;;21.30;100.00
18145;BME280;14857;41.200;-8.326;2022-08-03T02:07:25;99673.03;;;21.44;100.00
18145;BME280;14857;41.200;-8.326;2022-08-03T02:09:57;99665.44;;;21.41;100.00
18145;BME280;14857;41.200;-8.326;2022-08-03T02:12:28;99669.09;;;21.40;100.00
18145;BME280;14857;41.200;-8.326;2022-08-03T02:15:00;99666.56;;;21.32;100.00
18145;BME280;14857;41.200;-8.326;2022-08-03T02:17:32;99659.81;;;21.36;100.00
18145;BME280;14857;41.200;-8.326;2022-08-03T02:20:08;99652.56;;;21.09;100.00
18145;BME280;14857;41.200;-8.326;2022-08-03T02:22:40;99656.13;;;21.16;100.00
18145;BME280;14857;41.200;-8.326;2022-08-03T02:25:10;99661.69;;;21.21;100.00
18145;BME280;14857;41.200;-8.326;2022-08-03T02:27:44;99652.25;;;21.19;100.00
18145;BME280;14857;41.200;-8.326;2022-08-03T02:30:15;99639.78;;;21.05;100.00
18145;BME280;14857;41.200;-8.326;2022-08-03T02:32:50;99661.50;;;21.08;100.00
18145;BME280;14857;41.200;-8.326;2022-08-03T02:35:21;99666.56;;;21.18;100.00
18145;BME280;14857;41.200;-8.326;2022-08-03T02:37:52;99658.31;;;21.13;100.00
18145;BME280;14857;41.200;-8.326;2022-08-03T02:40:24;99662.06;;;21.18;100.00
18145;BME280;14857;41.200;-8.326;2022-08-03T02:42:54;99670.06;;;21.18;100.00
18145;BME280;14857;41.200;-8.326;2022-08-03T02:45:26;99653.09;;;21.19;100.00
18145;BME280;14857;41.200;-8.326;2022-08-03T02:47:59;99655.28;;;21.16;100.00
18145;BME280;14857;41.200;-8.326;2022-08-03T02:50:31;99648.94;;;21.02;100.00
18145;BME280;14857;41.200;-8.326;2022-08-03T02:53:02;99658.84;;;21.08;100.00
18145;BME280;14857;41.200;-8.326;2022-08-03T02:55:32;99665.84;;;21.09;100.00
18145;BME280;14857;41.200;-8.326;2022-08-03T02:58:10;99657.94;;;21.01;100.00
18145;BME280;14857;41.200;-8.326;2022-08-03T03:00:43;99641.97;;;21.01;100.00
18145;BME280;14857;41.200;-8.326;2022-08-03T03:03:14;99652.91;;;21.06;100.00
18145;BME280;14857;41.200;-8.326;2022-08-03T03:05:46;99652.81;;;21.00;100.00
18145;BME280;14857;41.200;-8.326;2022-08-03T03:08:24;99646.91;;;21.04;100.00
18145;BME280;14857;41.200;-8.326;2022-08-03T03:10:56;99644.38;;;20.96;100.00
18145;BME280;14857;41.200;-8.326;2022-08-03T03:13:27;99647.78;;;20.90;100.00
18145;BME280;14857;41.200;-8.326;2022-08-03T03:15:59;99640.06;;;20.95;100.00
18145;BME280;14857;41.200;-8.326;2022-08-03T03:18:30;99632.72;;;20.97;100.00
18145;BME280;14857;41.200;-8.326;2022-08-03T03:21:01;99645.22;;;20.97;100.00
18145;BME280;14857;41.200;-8.326;2022-08-03T03:23:32;99649.59;;;20.89;100.00
18145;BME280;14857;41.200;-8.326;2022-08-03T03:26:03;99644.47;;;20.88;100.00
18145;BME280;14857;41.200;-8.326;2022-08-03T03:28:32;99645.00;;;20.69;100.00
18145;BME280;14857;41.200;-8.326;2022-08-03T03:31:03;99649.56;;;20.46;100.00
18145;BME280;14857;41.200;-8.326;2022-08-03T03:33:34;99647.59;;;20.25;100.00
18145;BME280;14857;41.200;-8.326;2022-08-03T03:36:06;99661.13;;;20.15;100.00
18145;BME280;14857;41.200;-8.326;2022-08-03T03:38:35;99657.19;;;20.26;100.00
18145;BME280;14857;41.200;-8.326;2022-08-03T03:41:04;99664.03;;;20.06;100.00
18145;BME280;14857;41.200;-8.326;2022-08-03T03:43:32;99670.88;;;20.00;100.00
18145;BME280;14857;41.200;-8.326;2022-08-03T03:46:01;99668.53;;;20.20;100.00
18145;BME280;14857;41.200;-8.326;2022-08-03T03:48:30;99670.34;;;20.42;100.00
18145;BME280;14857;41.200;-8.326;2022-08-03T03:51:01;99673.69;;;20.59;100.00
18145;BME280;14857;41.200;-8.326;2022-08-03T03:53:29;99662.63;;;20.70;100.00
18145;BME280;14857;41.200;-8.326;2022-08-03T03:55:58;99669.22;;;20.74;100.00
18145;BME280;14857;41.200;-8.326;2022-08-03T03:58:30;99660.59;;;20.72;100.00
18145;BME280;14857;41.200;-8.326;2022-08-03T04:04:00;99652.19;;;20.83;100.00
18145;BME280;14857;41.200;-8.326;2022-08-03T04:06:50;99667.38;;;20.89;100.00
18145;BME280;14857;41.200;-8.326;2022-08-03T04:09:37;99673.53;;;20.89;100.00
18145;BME280;14857;41.200;-8.326;2022-08-03T04:12:35;99666.47;;;20.82;100.00
18145;BME280;14857;41.200;-8.326;2022-08-03T04:15:17;99670.59;;;20.84;100.00
18145;BME280;14857;41.200;-8.326;2022-08-03T04:17:49;99665.09;;;20.86;100.00
18145;BME280;14857;41.200;-8.326;2022-08-03T04:20:21;99670.50;;;20.78;100.00
18145;BME280;14857;41.200;-8.326;2022-08-03T04:22:53;99665.16;;;20.78;100.00
18145;BME280;14857;41.200;-8.326;2022-08-03T04:25:24;99665.91;;;20.72;100.00
18145;BME280;14857;41.200;-8.326;2022-08-03T04:27:54;99666.94;;;20.71;100.00
18145;BME280;14857;41.200;-8.326;2022-08-03T04:30:46;99661.66;;;20.33;100.00
18145;BME280;14857;41.200;-8.326;2022-08-03T04:33:18;99672.75;;;20.14;100.00
18145;BME280;14857;41.200;-8.326;2022-08-03T04:35:49;99677.34;;;20.20;100.00
18145;BME280;14857;41.200;-8.326;2022-08-03T04:38:30;99675.94;;;20.32;100.00
18145;BME280;14857;41.200;-8.326;2022-08-03T04:41:00;99677.16;;;20.45;100.00
18145;BME280;14857;41.200;-8.326;2022-08-03T04:43:31;99680.56;;;20.53;100.00
18145;BME280;14857;41.200;-8.326;2022-08-03T04:46:01;99684.25;;;20.67;100.00
18145;BME280;14857;41.200;-8.326;2022-08-03T04:48:30;99680.84;;;20.73;100.00
18145;BME280;14857;41.200;-8.326;2022-08-03T04:50:59;99676.44;;;20.65;100.00
18145;BME280;14857;41.200;-8.326;2022-08-03T04:53:31;99667.47;;;20.66;100.00
18145;BME280;14857;41.200;-8.326;2022-08-03T04:56:03;99677.66;;;20.77;100.00
18145;BME280;14857;41.200;-8.326;2022-08-03T04:58:32;99671.50;;;20.77;100.00
18145;BME280;14857;41.200;-8.326;2022-08-03T05:01:01;99674.19;;;20.77;100.00
18145;BME280;14857;41.200;-8.326;2022-08-03T05:03:29;99681.94;;;20.78;100.00
18145;BME280;14857;41.200;-8.326;2022-08-03T05:05:58;99685.53;;;20.71;100.00
18145;BME280;14857;41.200;-8.326;2022-08-03T05:08:37;99700.44;;;20.72;100.00
18145;BME280;14857;41.200;-8.326;2022-08-03T05:11:13;99697.63;;;20.73;100.00
18145;BME280;14857;41.200;-8.326;2022-08-03T05:13:41;99696.06;;;20.64;100.00
18145;BME280;14857;41.200;-8.326;2022-08-03T05:16:10;99700.66;;;20.70;100.00
18145;BME280;14857;41.200;-8.326;2022-08-03T05:18:40;99700.25;;;20.59;100.00
18145;BME280;14857;41.200;-8.326;2022-08-03T05:21:09;99703.13;;;20.72;100.00
18145;BME280;14857;41.200;-8.326;2022-08-03T05:23:41;99691.56;;;20.65;100.00
18145;BME280;14857;41.200;-8.326;2022-08-03T05:26:10;99698.91;;;20.63;100.00
18145;BME280;14857;41.200;-8.326;2022-08-03T05:28:39;99698.63;;;20.58;100.00
18145;BME280;14857;41.200;-8.326;2022-08-03T05:31:17;99690.56;;;20.51;100.00
18145;BME280;14857;41.200;-8.326;2022-08-03T05:33:46;99692.94;;;20.61;100.00
18145;BME280;14857;41.200;-8.326;2022-08-03T05:36:15;99683.59;;;20.65;100.00
18145;BME280;14857;41.200;-8.326;2022-08-03T05:38:45;99699.34;;;20.66;100.00
18145;BME280;14857;41.200;-8.326;2022-08-03T05:41:13;99698.53;;;20.66;100.00
18145;BME280;14857;41.200;-8.326;2022-08-03T05:43:49;99703.63;;;20.53;100.00
18145;BME280;14857;41.200;-8.326;2022-08-03T05:46:17;99686.06;;;20.52;100.00
18145;BME280;14857;41.200;-8.326;2022-08-03T05:48:46;99705.56;;;20.59;100.00
18145;BME280;14857;41.200;-8.326;2022-08-03T05:51:15;99707.53;;;20.42;100.00
18145;BME280;14857;41.200;-8.326;2022-08-03T05:53:45;99711.34;;;20.25;100.00
18145;BME280;14857;41.200;-8.326;2022-08-03T05:56:13;99706.63;;;20.12;100.00
18145;BME280;14857;41.200;-8.326;2022-08-03T05:58:44;99708.56;;;20.18;100.00
18145;BME280;14857;41.200;-8.326;2022-08-03T06:01:13;99703.91;;;20.20;100.00
18145;BME280;14857;41.200;-8.326;2022-08-03T06:03:43;99716.91;;;20.15;100.00
18145;BME280;14857;41.200;-8.326;2022-08-03T06:06:11;99725.13;;;20.20;100.00
18145;BME280;14857;41.200;-8.326;2022-08-03T06:08:40;99721.97;;;20.25;100.00
18145;BME280;14857;41.200;-8.326;2022-08-03T06:11:10;99720.44;;;20.30;100.00
18145;BME280;14857;41.200;-8.326;2022-08-03T06:13:39;99719.13;;;20.26;100.00
18145;BME280;14857;41.200;-8.326;2022-08-03T06:16:07;99721.91;;;20.10;100.00
18145;BME280;14857;41.200;-8.326;2022-08-03T06:18:37;99727.03;;;20.12;100.00
18145;BME280;14857;41.200;-8.326;2022-08-03T06:21:07;99726.81;;;20.21;100.00
18145;BME280;14857;41.200;-8.326;2022-08-03T06:23:43;99730.44;;;20.28;100.00
18145;BME280;14857;41.200;-8.326;2022-08-03T06:26:23;99734.66;;;20.37;100.00
18145;BME280;14857;41.200;-8.326;2022-08-03T06:28:51;99729.41;;;20.29;100.00
18145;BME280;14857;41.200;-8.326;2022-08-03T06:31:22;99727.50;;;20.15;100.00
18145;BME280;14857;41.200;-8.326;2022-08-03T06:34:03;99741.53;;;20.24;100.00
18145;BME280;14857;41.200;-8.326;2022-08-03T06:36:52;99751.34;;;20.23;100.00
18145;BME280;14857;41.200;-8.326;2022-08-03T06:39:27;99751.84;;;20.27;100.00
18145;BME280;14857;41.200;-8.326;2022-08-03T06:41:57;99745.09;;;20.39;100.00
18145;BME280;14857;41.200;-8.326;2022-08-03T06:44:26;99749.03;;;20.28;100.00
18145;BME280;14857;41.200;-8.326;2022-08-03T06:46:54;99752.66;;;20.27;100.00
18145;BME280;14857;41.200;-8.326;2022-08-03T06:49:23;99747.97;;;20.52;100.00
18145;BME280;14857;41.200;-8.326;2022-08-03T06:51:52;99741.88;;;20.66;100.00
18145;BME280;14857;41.200;-8.326;2022-08-03T06:54:35;99758.22;;;20.40;100.00
18145;BME280;14857;41.200;-8.326;2022-08-03T06:57:05;99749.16;;;20.50;100.00
18145;BME280;14857;41.200;-8.326;2022-08-03T06:59:35;99741.56;;;20.47;100.00
18145;BME280;14857;41.200;-8.326;2022-08-03T07:02:24;99743.09;;;20.41;100.00
18145;BME280;14857;41.200;-8.326;2022-08-03T07:04:55;99743.28;;;20.39;100.00
18145;BME280;14857;41.200;-8.326;2022-08-03T07:07:24;99745.44;;;20.36;100.00
18145;BME280;14857;41.200;-8.326;2022-08-03T07:09:52;99756.91;;;20.36;100.00
18145;BME280;14857;41.200;-8.326;2022-08-03T07:12:26;99747.44;;;20.57;100.00
18145;BME280;14857;41.200;-8.326;2022-08-03T07:14:56;99735.47;;;20.75;100.00
18145;BME280;14857;41.200;-8.326;2022-08-03T07:17:31;99745.31;;;20.89;100.00
18145;BME280;14857;41.200;-8.326;2022-08-03T07:20:03;99744.38;;;20.97;100.00
18145;BME280;14857;41.200;-8.326;2022-08-03T07:22:32;99729.63;;;20.80;100.00
18145;BME280;14857;41.200;-8.326;2022-08-03T07:25:00;99730.16;;;20.75;100.00
18145;BME280;14857;41.200;-8.326;2022-08-03T07:27:30;99728.97;;;20.78;100.00
18145;BME280;14857;41.200;-8.326;2022-08-03T07:29:59;99725.31;;;20.79;100.00
18145;BME280;14857;41.200;-8.326;2022-08-03T07:32:28;99730.19;;;20.90;100.00
18145;BME280;14857;41.200;-8.326;2022-08-03T07:34:57;99725.59;;;20.99;100.00
18145;BME280;14857;41.200;-8.326;2022-08-03T07:37:28;99733.38;;;20.71;100.00
18145;BME280;14857;41.200;-8.326;2022-08-03T07:39:57;99744.00;;;20.85;100.00
18145;BME280;14857;41.200;-8.326;2022-08-03T07:42:26;99732.56;;;21.00;100.00
18145;BME280;14857;41.200;-8.326;2022-08-03T07:44:57;99745.34;;;21.19;100.00
18145;BME280;14857;41.200;-8.326;2022-08-03T07:50:03;99733.88;;;21.69;100.00
18145;BME280;14857;41.200;-8.326;2022-08-03T07:52:35;99737.53;;;21.97;100.00
18145;BME280;14857;41.200;-8.326;2022-08-03T07:55:17;99727.66;;;21.97;100.00
18145;BME280;14857;41.200;-8.326;2022-08-03T07:57:47;99735.41;;;21.78;100.00
18145;BME280;14857;41.200;-8.326;2022-08-03T08:00:18;99710.25;;;21.95;100.00
18145;BME280;14857;41.200;-8.326;2022-08-03T08:02:46;99730.59;;;22.24;100.00
18145;BME280;14857;41.200;-8.326;2022-08-03T08:05:15;99720.38;;;22.48;100.00
18145;BME280;14857;41.200;-8.326;2022-08-03T08:07:44;99731.75;;;22.64;100.00
18145;BME280;14857;41.200;-8.326;2022-08-03T08:10:17;99723.31;;;22.88;100.00
18145;BME280;14857;41.200;-8.326;2022-08-03T08:12:46;99721.44;;;23.10;100.00
18145;BME280;14857;41.200;-8.326;2022-08-03T08:15:17;99716.41;;;23.34;100.00
18145;BME280;14857;41.200;-8.326;2022-08-03T08:17:47;99713.59;;;23.49;100.00
18145;BME280;14857;41.200;-8.326;2022-08-03T08:20:18;99725.16;;;23.63;100.00
18145;BME280;14857;41.200;-8.326;2022-08-03T08:22:55;99730.09;;;23.66;100.00
18145;BME280;14857;41.200;-8.326;2022-08-03T08:25:28;99729.50;;;23.70;100.00
18145;BME280;14857;41.200;-8.326;2022-08-03T08:27:58;99738.78;;;23.81;100.00
18145;BME280;14857;41.200;-8.326;2022-08-03T08:30:51;99736.94;;;23.88;100.00
18145;BME280;14857;41.200;-8.326;2022-08-03T08:33:20;99741.28;;;23.95;100.00
18145;BME280;14857;41.200;-8.326;2022-08-03T08:35:51;99746.56;;;23.76;100.00
18145;BME280;14857;41.200;-8.326;2022-08-03T08:38:21;99743.22;;;24.28;100.00
18145;BME280;14857;41.200;-8.326;2022-08-03T08:40:50;99743.34;;;23.93;100.00
18145;BME280;14857;41.200;-8.326;2022-08-03T08:43:18;99740.34;;;24.16;100.00
18145;BME280;14857;41.200;-8.326;2022-08-03T08:45:48;99732.72;;;24.85;100.00
18145;BME280;14857;41.200;-8.326;2022-08-03T08:48:23;99732.81;;;26.25;100.00
18145;BME280;14857;41.200;-8.326;2022-08-03T08:50:53;99730.16;;;27.84;100.00
18145;BME280;14857;41.200;-8.326;2022-08-03T08:53:25;99722.19;;;28.72;100.00
18145;BME280;14857;41.200;-8.326;2022-08-03T08:55:58;99730.03;;;28.73;100.00
18145;BME280;14857;41.200;-8.326;2022-08-03T08:58:29;99733.53;;;28.09;100.00
18145;BME280;14857;41.200;-8.326;2022-08-03T09:01:01;99731.44;;;26.66;100.00
18145;BME280;14857;41.200;-8.326;2022-08-03T09:03:33;99728.97;;;26.08;100.00
18145;BME280;14857;41.200;-8.326;2022-08-03T09:06:02;99724.97;;;27.82;100.00
18145;BME280;14857;41.200;-8.326;2022-08-03T09:08:31;99722.03;;;30.21;97.48
18145;BME280;14857;41.200;-8.326;2022-08-03T09:11:00;99717.44;;;33.49;80.83
18145;BME280;14857;41.200;-8.326;2022-08-03T09:13:29;99725.53;;;34.62;71.81
18145;BME280;14857;41.200;-8.326;2022-08-03T09:16:12;99741.47;;;36.27;64.73
18145;BME280;14857;41.200;-8.326;2022-08-03T09:18:44;99744.78;;;34.70;66.90
18145;BME280;14857;41.200;-8.326;2022-08-03T09:21:18;99748.41;;;35.50;64.78
18145;BME280;14857;41.200;-8.326;2022-08-03T09:24:04;99747.56;;;36.14;62.39
18145;BME280;14857;41.200;-8.326;2022-08-03T09:26:49;99736.28;;;32.77;74.65
18145;BME280;14857;41.200;-8.326;2022-08-03T09:29:20;99740.31;;;36.33;63.50
18145;BME280;14857;41.200;-8.326;2022-08-03T09:31:59;99722.00;;;34.21;66.00
18145;BME280;14857;41.200;-8.326;2022-08-03T09:34:29;99725.34;;;32.99;72.58
18145;BME280;14857;41.200;-8.326;2022-08-03T09:36:58;99726.88;;;34.39;70.56
18145;BME280;14857;41.200;-8.326;2022-08-03T09:39:27;99741.47;;;33.88;68.78
18145;BME280;14857;41.200;-8.326;2022-08-03T09:42:09;99727.44;;;32.55;74.61
18145;BME280;14857;41.200;-8.326;2022-08-03T09:44:42;99737.13;;;33.97;73.20
18145;BME280;14857;41.200;-8.326;2022-08-03T09:47:13;99725.00;;;35.59;64.60
18145;BME280;14857;41.200;-8.326;2022-08-03T09:49:58;99728.00;;;32.25;77.42
18145;BME280;14857;41.200;-8.326;2022-08-03T09:52:32;99713.84;;;34.61;70.35
18145;BME280;14857;41.200;-8.326;2022-08-03T09:55:15;99726.09;;;35.53;65.24
18145;BME280;14857;41.200;-8.326;2022-08-03T09:58:06;99718.97;;;33.20;71.48
18145;BME280;14857;41.200;-8.326;2022-08-03T10:00:52;99730.31;;;33.17;74.96
18145;BME280;14857;41.200;-8.326;2022-08-03T10:03:21;99730.28;;;35.25;65.36
18145;BME280;14857;41.200;-8.326;2022-08-03T10:05:52;99732.22;;;35.00;66.31
18145;BME280;14857;41.200;-8.326;2022-08-03T10:08:25;99732.44;;;33.62;69.82
18145;BME280;14857;41.200;-8.326;2022-08-03T10:10:54;99737.63;;;36.62;61.79
18145;BME280;14857;41.200;-8.326;2022-08-03T10:13:24;99728.72;;;38.12;57.43
18145;BME280;14857;41.200;-8.326;2022-08-03T10:15:54;99733.41;;;37.27;57.45
18145;BME280;14857;41.200;-8.326;2022-08-03T10:18:43;99728.34;;;36.29;58.70
18145;BME280;14857;41.200;-8.326;2022-08-03T10:21:16;99727.56;;;35.90;60.48
18145;BME280;14857;41.200;-8.326;2022-08-03T10:23:47;99719.03;;;35.47;63.34
18145;BME280;14857;41.200;-8.326;2022-08-03T10:26:18;99726.03;;;35.73;59.82
18145;BME280;14857;41.200;-8.326;2022-08-03T10:28:52;99725.22;;;34.89;63.44
18145;BME280;14857;41.200;-8.326;2022-08-03T10:31:22;99719.75;;;35.68;59.96
18145;BME280;14857;41.200;-8.326;2022-08-03T10:33:53;99714.66;;;34.67;63.50
18145;BME280;14857;41.200;-8.326;2022-08-03T10:36:26;99710.81;;;34.48;65.50
18145;BME280;14857;41.200;-8.326;2022-08-03T10:38:59;99702.41;;;34.19;66.96
18145;BME280;14857;41.200;-8.326;2022-08-03T10:41:31;99700.53;;;34.29;67.31
18145;BME280;14857;41.200;-8.326;2022-08-03T10:44:04;99697.75;;;34.85;64.06
18145;BME280;14857;41.200;-8.326;2022-08-03T10:46:35;99702.50;;;36.60;60.44
18145;BME280;14857;41.200;-8.326;2022-08-03T10:49:12;99694.13;;;35.20;62.16
18145;BME280;14857;41.200;-8.326;2022-08-03T10:51:43;99690.75;;;34.23;66.33
18145;BME280;14857;41.200;-8.326;2022-08-03T10:54:39;99687.44;;;34.06;69.29
18145;BME280;14857;41.200;-8.326;2022-08-03T10:57:47;99696.66;;;33.85;69.06
18145;BME280;14857;41.200;-8.326;2022-08-03T11:00:16;99697.84;;;32.43;75.49
18145;BME280;14857;41.200;-8.326;2022-08-03T11:03:06;99701.41;;;32.17;81.00
18145;BME280;14857;41.200;-8.326;2022-08-03T11:05:40;99690.31;;;32.50;80.59
18145;BME280;14857;41.200;-8.326;2022-08-03T11:08:22;99687.44;;;33.91;74.92
18145;BME280;14857;41.200;-8.326;2022-08-03T11:10:52;99691.44;;;35.05;68.81
18145;BME280;14857;41.200;-8.326;2022-08-03T11:13:22;99697.97;;;36.74;63.74
18145;BME280;14857;41.200;-8.326;2022-08-03T11:15:53;99700.94;;;37.49;58.97
18145;BME280;14857;41.200;-8.326;2022-08-03T11:18:28;99696.47;;;36.87;59.72
18145;BME280;14857;41.200;-8.326;2022-08-03T11:20:58;99696.03;;;35.78;63.62
18145;BME280;14857;41.200;-8.326;2022-08-03T11:23:42;99687.34;;;37.44;57.62
18145;BME280;14857;41.200;-8.326;2022-08-03T11:26:32;99679.31;;;33.86;67.77
18145;BME280;14857;41.200;-8.326;2022-08-03T11:29:28;99692.81;;;35.02;66.71
18145;BME280;14857;41.200;-8.326;2022-08-03T11:31:56;99682.75;;;32.94;75.24
18145;BME280;14857;41.200;-8.326;2022-08-03T11:34:25;99674.16;;;33.95;74.30
18145;BME280;14857;41.200;-8.326;2022-08-03T11:37:19;99687.72;;;32.02;80.91
18145;BME280;14857;41.200;-8.326;2022-08-03T11:39:53;99677.06;;;32.17;85.29
18145;BME280;14857;41.200;-8.326;2022-08-03T11:42:39;99683.69;;;32.31;80.74
18145;BME280;14857;41.200;-8.326;2022-08-03T11:45:10;99687.19;;;34.58;74.18
18145;BME280;14857;41.200;-8.326;2022-08-03T11:47:39;99690.94;;;34.93;70.15
18145;BME280;14857;41.200;-8.326;2022-08-03T11:50:17;99686.03;;;35.69;67.31
18145;BME280;14857;41.200;-8.326;2022-08-03T11:52:48;99686.78;;;36.47;64.04
18145;BME280;14857;41.200;-8.326;2022-08-03T11:55:19;99683.88;;;36.00;64.37
18145;BME280;14857;41.200;-8.326;2022-08-03T11:57:48;99680.38;;;34.86;67.71
18145;BME280;14857;41.200;-8.326;2022-08-03T12:00:37;99672.75;;;33.67;74.73
18145;BME280;14857;41.200;-8.326;2022-08-03T12:03:08;99678.00;;;33.11;80.16
18145;BME280;14857;41.200;-8.326;2022-08-03T12:05:43;99672.97;;;31.61;86.77
18145;BME280;14857;41.200;-8.326;2022-08-03T12:08:29;99669.78;;;31.42;90.93
18145;BME280;14857;41.200;-8.326;2022-08-03T12:11:01;99671.72;;;31.47;91.71
18145;BME280;14857;41.200;-8.326;2022-08-03T12:13:39;99654.00;;;31.56;89.49
18145;BME280;14857;41.200;-8.326;2022-08-03T12:16:28;99676.63;;;31.28;92.70
18145;BME280;14857;41.200;-8.326;2022-08-03T12:18:59;99678.09;;;31.14;94.44
18145;BME280;14857;41.200;-8.326;2022-08-03T12:21:28;99683.78;;;30.96;95.45
18145;BME280;14857;41.200;-8.326;2022-08-03T12:23:57;99677.50;;;29.90;100.00
18145;BME280;14857;41.200;-8.326;2022-08-03T12:26:28;99672.34;;;29.60;100.00
18145;BME280;14857;41.200;-8.326;2022-08-03T12:28:57;99675.00;;;29.72;100.00
18145;BME280;14857;41.200;-8.326;2022-08-03T12:31:26;99675.91;;;30.39;100.00
18145;BME280;14857;41.200;-8.326;2022-08-03T12:33:56;99685.06;;;30.05;100.00
18145;BME280;14857;41.200;-8.326;2022-08-03T12:36:27;99683.56;;;29.41;100.00
18145;BME280;14857;41.200;-8.326;2022-08-03T12:38:58;99687.13;;;29.86;100.00
18145;BME280;14857;41.200;-8.326;2022-08-03T12:41:29;99685.88;;;30.39;100.00
18145;BME280;14857;41.200;-8.326;2022-08-03T12:44:00;99681.16;;;30.62;100.00
18145;BME280;14857;41.200;-8.326;2022-08-03T12:46:32;99685.69;;;30.95;97.74
18145;BME280;14857;41.200;-8.326;2022-08-03T12:49:04;99687.75;;;30.71;99.65
18145;BME280;14857;41.200;-8.326;2022-08-03T12:51:35;99682.66;;;30.92;96.81
18145;BME280;14857;41.200;-8.326;2022-08-03T12:54:05;99690.66;;;30.87;98.08
18145;BME280;14857;41.200;-8.326;2022-08-03T12:56:35;99695.31;;;31.08;95.12
18145;BME280;14857;41.200;-8.326;2022-08-03T12:59:26;99692.03;;;31.06;96.49
18145;BME280;14857;41.200;-8.326;2022-08-03T13:02:02;99679.16;;;29.80;100.00
18145;BME280;14857;41.200;-8.326;2022-08-03T13:04:35;99682.44;;;30.27;100.00
18145;BME280;14857;41.200;-8.326;2022-08-03T13:07:06;99695.31;;;29.11;100.00
18145;BME280;14857;41.200;-8.326;2022-08-03T13:09:46;99685.09;;;28.85;100.00
18145;BME280;14857;41.200;-8.326;2022-08-03T13:12:15;99687.97;;;28.37;100.00
18145;BME280;14857;41.200;-8.326;2022-08-03T13:14:47;99688.59;;;27.98;100.00
18145;BME280;14857;41.200;-8.326;2022-08-03T13:17:16;99677.59;;;28.76;100.00
18145;BME280;14857;41.200;-8.326;2022-08-03T13:19:47;99688.44;;;29.27;100.00